sensor_id;sensor_type;location;lat;lon;timestamp;P1;durP1;ratioP1;P2;durP2;ratioP2
4694;SDS011;2361;49.540;8.390;2023-04-28T00:00:05;5.63;;;4.33;;
4694;SDS011;2361;49.540;8.390;2023-04-28T00:02:34;5.50;;;4.30;;
4694;SDS011;2361;49.540;8.390;2023-04-28T00:05:01;4.53;;;4.10;;
4694;SDS011;2361;49.540;8.390;2023-04-28T00:07:28;6.00;;;4.87;;
4694;SDS011;2361;49.540;8.390;2023-04-28T00:09:55;9.07;;;5.97;;
4694;SDS011;2361;49.540;8.390;2023-04-28T00:12:22;6.97;;;5.53;;
4694;SDS011;2361;49.540;8.390;2023-04-28T00:14:49;8.17;;;5.67;;
4694;SDS011;2361;49.540;8.390;2023-04-28T00:17:16;10.50;;;6.13;;
4694;SDS011;2361;49.540;8.390;2023-04-28T00:19:43;9.00;;;6.00;;
4694;SDS011;2361;49.540;8.390;2023-04-28T00:22:10;4.97;;;3.73;;
4694;SDS011;2361;49.540;8.390;2023-04-28T00:24:37;5.73;;;4.17;;
4694;SDS011;2361;49.540;8.390;2023-04-28T00:27:04;5.63;;;5.03;;
4694;SDS011;2361;49.540;8.390;2023-04-28T00:29:31;8.63;;;5.70;;
4694;SDS011;2361;49.540;8.390;2023-04-28T00:31:58;6.90;;;5.13;;
4694;SDS011;2361;49.540;8.390;2023-04-28T00:34:25;7.40;;;5.53;;
4694;SDS011;2361;49.540;8.390;2023-04-28T00:36:52;6.80;;;5.40;;
4694;SDS011;2361;49.540;8.390;2023-04-28T00:39:19;4.90;;;4.40;;
4694;SDS011;2361;49.540;8.390;2023-04-28T00:41:48;5.37;;;4.87;;
4694;SDS011;2361;49.540;8.390;2023-04-28T00:44:14;10.90;;;5.80;;
4694;SDS011;2361;49.540;8.390;2023-04-28T00:46:42;6.70;;;5.57;;
4694;SDS011;2361;49.540;8.390;2023-04-28T00:49:09;6.17;;;5.23;;
4694;SDS011;2361;49.540;8.390;2023-04-28T00:51:36;9.40;;;5.73;;
4694;SDS011;2361;49.540;8.390;2023-04-28T00:54:04;9.60;;;5.60;;
4694;SDS011;2361;49.540;8.390;2023-04-28T00:56:32;8.43;;;5.83;;
4694;SDS011;2361;49.540;8.390;2023-04-28T00:58:59;8.60;;;5.50;;
4694;SDS011;2361;49.540;8.390;2023-04-28T01:01:26;7.13;;;5.10;;
4694;SDS011;2361;49.540;8.390;2023-04-28T01:03:53;9.57;;;5.80;;
4694;SDS011;2361;49.540;8.390;2023-04-28T01:06:21;8.50;;;5.77;;
4694;SDS011;2361;49.540;8.390;2023-04-28T01:08:48;10.97;;;6.37;;
4694;SDS011;2361;49.540;8.390;2023-04-28T01:11:16;9.50;;;6.20;;
4694;SDS011;2361;49.540;8.390;2023-04-28T01:13:43;6.43;;;5.60;;
4694;SDS011;2361;49.540;8.390;2023-04-28T01:16:10;7.27;;;6.13;;
4694;SDS011;2361;49.540;8.390;2023-04-28T01:18:37;8.80;;;5.53;;
4694;SDS011;2361;49.540;8.390;2023-04-28T01:21:08;7.30;;;5.57;;
4694;SDS011;2361;49.540;8.390;2023-04-28T01:23:35;6.07;;;5.27;;
4694;SDS011;2361;49.540;8.390;2023-04-28T01:26:01;7.90;;;5.83;;
4694;SDS011;2361;49.540;8.390;2023-04-28T01:28:28;6.40;;;5.70;;
4694;SDS011;2361;49.540;8.390;2023-04-28T01:30:55;9.87;;;5.60;;
4694;SDS011;2361;49.540;8.390;2023-04-28T01:33:22;7.37;;;5.63;;
4694;SDS011;2361;49.540;8.390;2023-04-28T01:35:49;4.80;;;4.33;;
4694;SDS011;2361;49.540;8.390;2023-04-28T01:38:16;7.87;;;5.60;;
4694;SDS011;2361;49.540;8.390;2023-04-28T01:40:43;7.37;;;5.87;;
4694;SDS011;2361;49.540;8.390;2023-04-28T01:43:10;9.63;;;6.43;;
4694;SDS011;2361;49.540;8.390;2023-04-28T01:45:37;8.07;;;5.87;;
4694;SDS011;2361;49.540;8.390;2023-04-28T01:48:04;9.23;;;6.23;;
4694;SDS011;2361;49.540;8.390;2023-04-28T01:50:31;12.70;;;5.90;;
4694;SDS011;2361;49.540;8.390;2023-04-28T01:52:58;11.50;;;6.77;;
4694;SDS011;2361;49.540;8.390;2023-04-28T01:55:25;11.47;;;7.57;;
4694;SDS011;2361;49.540;8.390;2023-04-28T01:57:52;10.13;;;7.30;;
4694;SDS011;2361;49.540;8.390;2023-04-28T02:00:19;8.97;;;6.50;;
4694;SDS011;2361;49.540;8.390;2023-04-28T02:02:46;11.83;;;6.87;;
4694;SDS011;2361;49.540;8.390;2023-04-28T02:05:13;9.57;;;5.70;;
4694;SDS011;2361;49.540;8.390;2023-04-28T02:07:40;9.03;;;5.30;;
4694;SDS011;2361;49.540;8.390;2023-04-28T02:10:07;9.43;;;5.17;;
4694;SDS011;2361;49.540;8.390;2023-04-28T02:12:35;6.70;;;4.80;;
4694;SDS011;2361;49.540;8.390;2023-04-28T02:15:02;7.20;;;4.87;;
4694;SDS011;2361;49.540;8.390;2023-04-28T02:17:29;8.43;;;5.80;;
4694;SDS011;2361;49.540;8.390;2023-04-28T02:19:56;9.80;;;5.87;;
4694;SDS011;2361;49.540;8.390;2023-04-28T02:22:23;9.47;;;5.97;;
4694;SDS011;2361;49.540;8.390;2023-04-28T02:24:50;8.13;;;5.73;;
4694;SDS011;2361;49.540;8.390;2023-04-28T02:27:17;6.37;;;4.83;;
4694;SDS011;2361;49.540;8.390;2023-04-28T02:29:45;12.70;;;6.20;;
4694;SDS011;2361;49.540;8.390;2023-04-28T02:32:12;12.37;;;6.90;;
4694;SDS011;2361;49.540;8.390;2023-04-28T02:34:38;9.13;;;6.30;;
4694;SDS011;2361;49.540;8.390;2023-04-28T02:37:05;9.37;;;6.50;;
4694;SDS011;2361;49.540;8.390;2023-04-28T02:39:32;9.27;;;6.03;;
4694;SDS011;2361;49.540;8.390;2023-04-28T02:41:59;8.00;;;6.13;;
4694;SDS011;2361;49.540;8.390;2023-04-28T02:44:26;8.83;;;6.30;;
4694;SDS011;2361;49.540;8.390;2023-04-28T02:46:53;8.10;;;5.93;;
4694;SDS011;2361;49.540;8.390;2023-04-28T02:49:20;8.67;;;5.40;;
4694;SDS011;2361;49.540;8.390;2023-04-28T02:51:47;7.33;;;5.67;;
4694;SDS011;2361;49.540;8.390;2023-04-28T02:54:14;7.40;;;5.63;;
4694;SDS011;2361;49.540;8.390;2023-04-28T02:56:41;6.40;;;5.27;;
4694;SDS011;2361;49.540;8.390;2023-04-28T02:59:08;5.63;;;5.03;;
4694;SDS011;2361;49.540;8.390;2023-04-28T03:01:35;4.83;;;4.33;;
4694;SDS011;2361;49.540;8.390;2023-04-28T03:04:02;4.80;;;4.10;;
4694;SDS011;2361;49.540;8.390;2023-04-28T03:06:30;4.67;;;4.17;;
4694;SDS011;2361;49.540;8.390;2023-04-28T03:08:57;5.33;;;4.83;;
4694;SDS011;2361;49.540;8.390;2023-04-28T03:11:23;5.20;;;4.40;;
4694;SDS011;2361;49.540;8.390;2023-04-28T03:13:50;6.27;;;4.70;;
4694;SDS011;2361;49.540;8.390;2023-04-28T03:16:17;5.97;;;3.83;;
4694;SDS011;2361;49.540;8.390;2023-04-28T03:18:44;3.50;;;3.20;;
4694;SDS011;2361;49.540;8.390;2023-04-28T03:21:11;3.80;;;3.50;;
4694;SDS011;2361;49.540;8.390;2023-04-28T03:23:38;5.17;;;3.80;;
4694;SDS011;2361;49.540;8.390;2023-04-28T03:26:05;3.77;;;3.37;;
4694;SDS011;2361;49.540;8.390;2023-04-28T03:28:33;4.63;;;3.80;;
4694;SDS011;2361;49.540;8.390;2023-04-28T03:31:00;3.93;;;3.63;;
4694;SDS011;2361;49.540;8.390;2023-04-28T03:33:27;8.37;;;5.50;;
4694;SDS011;2361;49.540;8.390;2023-04-28T03:35:54;9.80;;;5.90;;
4694;SDS011;2361;49.540;8.390;2023-04-28T03:38:21;7.33;;;5.10;;
4694;SDS011;2361;49.540;8.390;2023-04-28T03:40:48;6.30;;;5.30;;
4694;SDS011;2361;49.540;8.390;2023-04-28T03:43:15;5.57;;;4.80;;
4694;SDS011;2361;49.540;8.390;2023-04-28T03:45:42;7.37;;;5.30;;
4694;SDS011;2361;49.540;8.390;2023-04-28T03:48:09;5.30;;;4.53;;
4694;SDS011;2361;49.540;8.390;2023-04-28T03:50:36;5.90;;;4.43;;
4694;SDS011;2361;49.540;8.390;2023-04-28T03:53:06;5.83;;;4.93;;
4694;SDS011;2361;49.540;8.390;2023-04-28T03:55:36;4.30;;;3.90;;
4694;SDS011;2361;49.540;8.390;2023-04-28T03:58:06;6.03;;;5.20;;
4694;SDS011;2361;49.540;8.390;2023-04-28T04:00:33;4.33;;;3.90;;
4694;SDS011;2361;49.540;8.390;2023-04-28T04:03:00;6.83;;;4.40;;
4694;SDS011;2361;49.540;8.390;2023-04-28T04:05:27;2.40;;;1.00;;
4694;SDS011;2361;49.540;8.390;2023-04-28T04:07:55;4.17;;;3.20;;
4694;SDS011;2361;49.540;8.390;2023-04-28T04:10:21;3.83;;;2.57;;
4694;SDS011;2361;49.540;8.390;2023-04-28T04:12:48;5.23;;;3.57;;
4694;SDS011;2361;49.540;8.390;2023-04-28T04:15:18;3.07;;;2.83;;
4694;SDS011;2361;49.540;8.390;2023-04-28T04:17:45;3.73;;;3.40;;
4694;SDS011;2361;49.540;8.390;2023-04-28T04:20:12;3.57;;;3.27;;
4694;SDS011;2361;49.540;8.390;2023-04-28T04:22:39;3.27;;;3.00;;
4694;SDS011;2361;49.540;8.390;2023-04-28T04:25:06;2.30;;;2.20;;
4694;SDS011;2361;49.540;8.390;2023-04-28T04:27:33;3.40;;;2.70;;
4694;SDS011;2361;49.540;8.390;2023-04-28T04:30:00;4.77;;;3.20;;
4694;SDS011;2361;49.540;8.390;2023-04-28T04:32:27;3.07;;;2.80;;
4694;SDS011;2361;49.540;8.390;2023-04-28T04:34:54;3.77;;;2.30;;
4694;SDS011;2361;49.540;8.390;2023-04-28T04:37:22;4.57;;;3.03;;
4694;SDS011;2361;49.540;8.390;2023-04-28T04:39:49;3.20;;;2.90;;
4694;SDS011;2361;49.540;8.390;2023-04-28T04:42:17;2.90;;;2.60;;
4694;SDS011;2361;49.540;8.390;2023-04-28T04:44:50;3.67;;;3.33;;
4694;SDS011;2361;49.540;8.390;2023-04-28T04:47:17;2.97;;;2.70;;
4694;SDS011;2361;49.540;8.390;2023-04-28T04:49:44;3.67;;;2.77;;
4694;SDS011;2361;49.540;8.390;2023-04-28T04:52:13;4.37;;;3.67;;
4694;SDS011;2361;49.540;8.390;2023-04-28T04:54:40;7.20;;;4.00;;
4694;SDS011;2361;49.540;8.390;2023-04-28T04:57:06;4.70;;;3.30;;
4694;SDS011;2361;49.540;8.390;2023-04-28T04:59:34;2.33;;;2.23;;
4694;SDS011;2361;49.540;8.390;2023-04-28T05:02:01;8.37;;;3.50;;
4694;SDS011;2361;49.540;8.390;2023-04-28T05:04:28;5.00;;;3.00;;
4694;SDS011;2361;49.540;8.390;2023-04-28T05:06:55;2.70;;;2.30;;
4694;SDS011;2361;49.540;8.390;2023-04-28T05:09:21;3.87;;;2.60;;
4694;SDS011;2361;49.540;8.390;2023-04-28T05:11:49;2.83;;;2.40;;
4694;SDS011;2361;49.540;8.390;2023-04-28T05:14:16;4.00;;;3.30;;
4694;SDS011;2361;49.540;8.390;2023-04-28T05:16:43;2.20;;;1.60;;
4694;SDS011;2361;49.540;8.390;2023-04-28T05:19:10;2.60;;;2.00;;
4694;SDS011;2361;49.540;8.390;2023-04-28T05:21:37;4.70;;;4.20;;
4694;SDS011;2361;49.540;8.390;2023-04-28T05:24:04;4.63;;;3.80;;
4694;SDS011;2361;49.540;8.390;2023-04-28T05:26:31;6.77;;;3.10;;
4694;SDS011;2361;49.540;8.390;2023-04-28T05:28:58;1.60;;;1.30;;
4694;SDS011;2361;49.540;8.390;2023-04-28T05:31:25;6.03;;;4.10;;
4694;SDS011;2361;49.540;8.390;2023-04-28T05:33:52;4.00;;;2.70;;
4694;SDS011;2361;49.540;8.390;2023-04-28T05:36:19;6.57;;;3.57;;
4694;SDS011;2361;49.540;8.390;2023-04-28T05:38:46;6.27;;;3.57;;
4694;SDS011;2361;49.540;8.390;2023-04-28T05:41:13;5.87;;;3.37;;
4694;SDS011;2361;49.540;8.390;2023-04-28T05:43:40;4.07;;;2.97;;
4694;SDS011;2361;49.540;8.390;2023-04-28T05:46:07;4.70;;;3.73;;
4694;SDS011;2361;49.540;8.390;2023-04-28T05:48:44;6.70;;;5.20;;
4694;SDS011;2361;49.540;8.390;2023-04-28T05:51:11;5.83;;;4.53;;
4694;SDS011;2361;49.540;8.390;2023-04-28T05:53:38;6.27;;;4.17;;
4694;SDS011;2361;49.540;8.390;2023-04-28T05:56:05;5.17;;;3.60;;
4694;SDS011;2361;49.540;8.390;2023-04-28T05:58:33;5.90;;;5.03;;
4694;SDS011;2361;49.540;8.390;2023-04-28T06:01:00;7.17;;;4.67;;
4694;SDS011;2361;49.540;8.390;2023-04-28T06:03:27;8.63;;;4.40;;
4694;SDS011;2361;49.540;8.390;2023-04-28T06:05:54;6.47;;;4.90;;
4694;SDS011;2361;49.540;8.390;2023-04-28T06:08:21;7.37;;;4.93;;
4694;SDS011;2361;49.540;8.390;2023-04-28T06:10:48;10.07;;;4.80;;
4694;SDS011;2361;49.540;8.390;2023-04-28T06:13:15;5.23;;;4.20;;
4694;SDS011;2361;49.540;8.390;2023-04-28T06:15:41;5.10;;;2.80;;
4694;SDS011;2361;49.540;8.390;2023-04-28T06:18:09;7.53;;;3.90;;
4694;SDS011;2361;49.540;8.390;2023-04-28T06:20:36;6.30;;;4.50;;
4694;SDS011;2361;49.540;8.390;2023-04-28T06:23:03;4.77;;;2.90;;
4694;SDS011;2361;49.540;8.390;2023-04-28T06:25:30;8.63;;;4.17;;
4694;SDS011;2361;49.540;8.390;2023-04-28T06:27:57;5.13;;;3.77;;
4694;SDS011;2361;49.540;8.390;2023-04-28T06:30:24;6.03;;;4.43;;
4694;SDS011;2361;49.540;8.390;2023-04-28T06:32:51;4.43;;;4.03;;
4694;SDS011;2361;49.540;8.390;2023-04-28T06:35:18;4.70;;;3.30;;
4694;SDS011;2361;49.540;8.390;2023-04-28T06:37:45;5.40;;;4.13;;
4694;SDS011;2361;49.540;8.390;2023-04-28T06:40:12;6.20;;;4.40;;
4694;SDS011;2361;49.540;8.390;2023-04-28T06:42:39;4.60;;;3.93;;
4694;SDS011;2361;49.540;8.390;2023-04-28T06:45:06;6.47;;;3.87;;
4694;SDS011;2361;49.540;8.390;2023-04-28T06:47:34;8.23;;;3.83;;
4694;SDS011;2361;49.540;8.390;2023-04-28T06:50:02;5.57;;;4.23;;
4694;SDS011;2361;49.540;8.390;2023-04-28T06:52:29;5.90;;;4.33;;
4694;SDS011;2361;49.540;8.390;2023-04-28T06:55:07;4.80;;;3.57;;
4694;SDS011;2361;49.540;8.390;2023-04-28T06:57:34;10.10;;;4.80;;
4694;SDS011;2361;49.540;8.390;2023-04-28T07:00:03;4.20;;;3.77;;
4694;SDS011;2361;49.540;8.390;2023-04-28T07:02:31;3.70;;;3.37;;
4694;SDS011;2361;49.540;8.390;2023-04-28T07:04:58;3.13;;;2.90;;
4694;SDS011;2361;49.540;8.390;2023-04-28T07:07:25;2.97;;;2.67;;
4694;SDS011;2361;49.540;8.390;2023-04-28T07:09:52;6.63;;;4.73;;
4694;SDS011;2361;49.540;8.390;2023-04-28T07:12:20;5.53;;;4.00;;
4694;SDS011;2361;49.540;8.390;2023-04-28T07:14:47;8.00;;;4.60;;
4694;SDS011;2361;49.540;8.390;2023-04-28T07:17:16;4.57;;;3.10;;
4694;SDS011;2361;49.540;8.390;2023-04-28T07:19:42;3.33;;;3.10;;
4694;SDS011;2361;49.540;8.390;2023-04-28T07:22:09;5.13;;;3.80;;
4694;SDS011;2361;49.540;8.390;2023-04-28T07:24:36;4.10;;;2.87;;
4694;SDS011;2361;49.540;8.390;2023-04-28T07:27:04;7.00;;;4.00;;
4694;SDS011;2361;49.540;8.390;2023-04-28T07:29:31;6.90;;;4.70;;
4694;SDS011;2361;49.540;8.390;2023-04-28T07:32:00;5.57;;;4.27;;
4694;SDS011;2361;49.540;8.390;2023-04-28T07:34:32;5.10;;;2.67;;
4694;SDS011;2361;49.540;8.390;2023-04-28T07:37:01;6.20;;;3.67;;
4694;SDS011;2361;49.540;8.390;2023-04-28T07:39:32;3.40;;;2.67;;
4694;SDS011;2361;49.540;8.390;2023-04-28T07:42:00;8.80;;;4.10;;
4694;SDS011;2361;49.540;8.390;2023-04-28T07:44:28;6.37;;;3.87;;
4694;SDS011;2361;49.540;8.390;2023-04-28T07:46:56;5.17;;;3.20;;
4694;SDS011;2361;49.540;8.390;2023-04-28T07:49:25;5.87;;;3.47;;
4694;SDS011;2361;49.540;8.390;2023-04-28T07:51:55;5.70;;;3.90;;
4694;SDS011;2361;49.540;8.390;2023-04-28T07:54:23;6.70;;;3.50;;
4694;SDS011;2361;49.540;8.390;2023-04-28T07:56:50;4.50;;;3.50;;
4694;SDS011;2361;49.540;8.390;2023-04-28T07:59:18;7.57;;;4.80;;
4694;SDS011;2361;49.540;8.390;2023-04-28T08:01:45;4.80;;;3.37;;
4694;SDS011;2361;49.540;8.390;2023-04-28T08:04:11;9.03;;;5.50;;
4694;SDS011;2361;49.540;8.390;2023-04-28T08:06:39;6.53;;;4.90;;
4694;SDS011;2361;49.540;8.390;2023-04-28T08:09:06;6.13;;;3.80;;
4694;SDS011;2361;49.540;8.390;2023-04-28T08:11:33;8.20;;;5.93;;
4694;SDS011;2361;49.540;8.390;2023-04-28T08:14:00;1.90;;;1.80;;
4694;SDS011;2361;49.540;8.390;2023-04-28T08:16:29;7.33;;;3.77;;
4694;SDS011;2361;49.540;8.390;2023-04-28T08:18:56;3.27;;;2.97;;
4694;SDS011;2361;49.540;8.390;2023-04-28T08:21:24;4.27;;;3.13;;
4694;SDS011;2361;49.540;8.390;2023-04-28T08:23:52;6.60;;;4.33;;
4694;SDS011;2361;49.540;8.390;2023-04-28T08:26:19;5.27;;;1.57;;
4694;SDS011;2361;49.540;8.390;2023-04-28T08:28:46;4.70;;;4.30;;
4694;SDS011;2361;49.540;8.390;2023-04-28T08:31:13;2.87;;;2.40;;
4694;SDS011;2361;49.540;8.390;2023-04-28T08:33:40;4.10;;;3.40;;
4694;SDS011;2361;49.540;8.390;2023-04-28T08:36:09;4.47;;;4.07;;
4694;SDS011;2361;49.540;8.390;2023-04-28T08:38:40;4.10;;;3.50;;
4694;SDS011;2361;49.540;8.390;2023-04-28T08:41:07;5.50;;;4.83;;
4694;SDS011;2361;49.540;8.390;2023-04-28T08:43:34;3.90;;;3.45;;
4694;SDS011;2361;49.540;8.390;2023-04-28T08:46:06;4.20;;;3.50;;
4694;SDS011;2361;49.540;8.390;2023-04-28T08:48:37;3.10;;;2.80;;
4694;SDS011;2361;49.540;8.390;2023-04-28T08:51:13;3.10;;;2.70;;
4694;SDS011;2361;49.540;8.390;2023-04-28T08:53:43;4.67;;;1.37;;
4694;SDS011;2361;49.540;8.390;2023-04-28T08:56:36;3.63;;;3.17;;
4694;SDS011;2361;49.540;8.390;2023-04-28T08:59:04;2.63;;;2.37;;
4694;SDS011;2361;49.540;8.390;2023-04-28T09:01:31;4.17;;;2.90;;
4694;SDS011;2361;49.540;8.390;2023-04-28T09:04:01;4.80;;;3.13;;
4694;SDS011;2361;49.540;8.390;2023-04-28T09:06:33;4.77;;;3.00;;
4694;SDS011;2361;49.540;8.390;2023-04-28T09:12:10;3.57;;;3.07;;
4694;SDS011;2361;49.540;8.390;2023-04-28T09:14:37;2.00;;;1.90;;
4694;SDS011;2361;49.540;8.390;2023-04-28T09:17:11;3.93;;;2.87;;
4694;SDS011;2361;49.540;8.390;2023-04-28T09:19:39;2.90;;;2.57;;
4694;SDS011;2361;49.540;8.390;2023-04-28T09:22:09;2.70;;;2.40;;
4694;SDS011;2361;49.540;8.390;2023-04-28T09:24:51;2.40;;;2.10;;
4694;SDS011;2361;49.540;8.390;2023-04-28T09:27:25;1.60;;;1.50;;
4694;SDS011;2361;49.540;8.390;2023-04-28T09:29:53;4.77;;;2.10;;
4694;SDS011;2361;49.540;8.390;2023-04-28T09:32:21;2.57;;;2.37;;
4694;SDS011;2361;49.540;8.390;2023-04-28T09:34:50;2.90;;;2.70;;
4694;SDS011;2361;49.540;8.390;2023-04-28T09:39:49;2.50;;;2.30;;
4694;SDS011;2361;49.540;8.390;2023-04-28T09:45:06;3.00;;;2.40;;
4694;SDS011;2361;49.540;8.390;2023-04-28T09:47:39;3.27;;;3.00;;
4694;SDS011;2361;49.540;8.390;2023-04-28T09:50:09;2.03;;;1.93;;
4694;SDS011;2361;49.540;8.390;2023-04-28T09:52:42;3.00;;;2.80;;
4694;SDS011;2361;49.540;8.390;2023-04-28T09:55:11;2.57;;;2.40;;
4694;SDS011;2361;49.540;8.390;2023-04-28T09:57:38;2.20;;;2.07;;
4694;SDS011;2361;49.540;8.390;2023-04-28T10:00:06;3.60;;;3.30;;
4694;SDS011;2361;49.540;8.390;2023-04-28T10:02:35;3.77;;;3.20;;
4694;SDS011;2361;49.540;8.390;2023-04-28T10:05:06;3.20;;;2.90;;
4694;SDS011;2361;49.540;8.390;2023-04-28T10:07:38;3.30;;;3.00;;
4694;SDS011;2361;49.540;8.390;2023-04-28T10:10:06;2.57;;;2.20;;
4694;SDS011;2361;49.540;8.390;2023-04-28T10:12:33;2.90;;;2.70;;
4694;SDS011;2361;49.540;8.390;2023-04-28T10:15:03;3.33;;;3.03;;
4694;SDS011;2361;49.540;8.390;2023-04-28T10:17:32;4.73;;;3.27;;
4694;SDS011;2361;49.540;8.390;2023-04-28T10:20:02;3.90;;;3.50;;
4694;SDS011;2361;49.540;8.390;2023-04-28T10:27:55;3.97;;;2.97;;
4694;SDS011;2361;49.540;8.390;2023-04-28T10:30:25;2.73;;;2.53;;
4694;SDS011;2361;49.540;8.390;2023-04-28T10:38:18;3.13;;;2.93;;
4694;SDS011;2361;49.540;8.390;2023-04-28T10:40:52;3.93;;;3.53;;
4694;SDS011;2361;49.540;8.390;2023-04-28T10:56:15;4.30;;;3.33;;
4694;SDS011;2361;49.540;8.390;2023-04-28T10:58:47;3.17;;;2.63;;
4694;SDS011;2361;49.540;8.390;2023-04-28T11:03:56;4.13;;;3.30;;
4694;SDS011;2361;49.540;8.390;2023-04-28T11:06:39;4.80;;;4.30;;
4694;SDS011;2361;49.540;8.390;2023-04-28T11:12:03;3.80;;;3.30;;
4694;SDS011;2361;49.540;8.390;2023-04-28T11:14:36;4.40;;;4.00;;
4694;SDS011;2361;49.540;8.390;2023-04-28T11:17:09;5.97;;;3.77;;
4694;SDS011;2361;49.540;8.390;2023-04-28T11:19:42;4.20;;;3.17;;
4694;SDS011;2361;49.540;8.390;2023-04-28T11:22:18;3.13;;;2.83;;
4694;SDS011;2361;49.540;8.390;2023-04-28T11:24:54;4.37;;;3.97;;
4694;SDS011;2361;49.540;8.390;2023-04-28T11:27:23;4.13;;;3.77;;
4694;SDS011;2361;49.540;8.390;2023-04-28T11:29:51;3.27;;;2.97;;
4694;SDS011;2361;49.540;8.390;2023-04-28T11:32:25;4.87;;;3.83;;
4694;SDS011;2361;49.540;8.390;2023-04-28T11:34:59;3.33;;;3.03;;
4694;SDS011;2361;49.540;8.390;2023-04-28T11:37:28;4.10;;;3.70;;
4694;SDS011;2361;49.540;8.390;2023-04-28T11:39:55;3.90;;;3.57;;
4694;SDS011;2361;49.540;8.390;2023-04-28T11:42:22;3.70;;;3.43;;
4694;SDS011;2361;49.540;8.390;2023-04-28T11:44:52;7.47;;;3.60;;
4694;SDS011;2361;49.540;8.390;2023-04-28T11:47:29;2.67;;;2.47;;
4694;SDS011;2361;49.540;8.390;2023-04-28T11:49:59;2.57;;;2.40;;
4694;SDS011;2361;49.540;8.390;2023-04-28T11:52:26;3.53;;;3.23;;
4694;SDS011;2361;49.540;8.390;2023-04-28T11:54:53;4.80;;;3.70;;
4694;SDS011;2361;49.540;8.390;2023-04-28T11:57:27;2.83;;;2.63;;
4694;SDS011;2361;49.540;8.390;2023-04-28T12:00:10;5.30;;;3.87;;
4694;SDS011;2361;49.540;8.390;2023-04-28T12:02:46;4.70;;;3.87;;
4694;SDS011;2361;49.540;8.390;2023-04-28T12:05:14;10.13;;;5.80;;
4694;SDS011;2361;49.540;8.390;2023-04-28T12:07:41;17.20;;;10.40;;
4694;SDS011;2361;49.540;8.390;2023-04-28T12:10:13;10.10;;;6.20;;
4694;SDS011;2361;49.540;8.390;2023-04-28T12:12:45;4.70;;;4.23;;
4694;SDS011;2361;49.540;8.390;2023-04-28T12:15:17;5.37;;;4.27;;
4694;SDS011;2361;49.540;8.390;2023-04-28T12:17:46;4.77;;;3.60;;
4694;SDS011;2361;49.540;8.390;2023-04-28T12:20:33;7.03;;;4.67;;
4694;SDS011;2361;49.540;8.390;2023-04-28T12:23:04;5.83;;;3.77;;
4694;SDS011;2361;49.540;8.390;2023-04-28T12:25:32;6.60;;;5.40;;
4694;SDS011;2361;49.540;8.390;2023-04-28T12:28:09;8.40;;;5.23;;
4694;SDS011;2361;49.540;8.390;2023-04-28T12:30:37;5.40;;;4.40;;
4694;SDS011;2361;49.540;8.390;2023-04-28T12:33:22;4.70;;;3.90;;
4694;SDS011;2361;49.540;8.390;2023-04-28T12:35:52;6.13;;;4.03;;
4694;SDS011;2361;49.540;8.390;2023-04-28T12:38:23;5.67;;;3.87;;
4694;SDS011;2361;49.540;8.390;2023-04-28T12:40:51;5.30;;;3.63;;
4694;SDS011;2361;49.540;8.390;2023-04-28T12:43:18;6.63;;;4.10;;
4694;SDS011;2361;49.540;8.390;2023-04-28T12:45:51;7.10;;;5.10;;
4694;SDS011;2361;49.540;8.390;2023-04-28T12:48:20;5.10;;;3.97;;
4694;SDS011;2361;49.540;8.390;2023-04-28T12:50:49;4.30;;;3.47;;
4694;SDS011;2361;49.540;8.390;2023-04-28T12:53:16;8.30;;;5.20;;
4694;SDS011;2361;49.540;8.390;2023-04-28T12:55:43;4.30;;;3.83;;
4694;SDS011;2361;49.540;8.390;2023-04-28T12:58:10;4.77;;;4.17;;
4694;SDS011;2361;49.540;8.390;2023-04-28T13:00:37;5.07;;;4.57;;
4694;SDS011;2361;49.540;8.390;2023-04-28T13:03:06;5.30;;;4.00;;
4694;SDS011;2361;49.540;8.390;2023-04-28T13:05:34;3.83;;;3.43;;
4694;SDS011;2361;49.540;8.390;2023-04-28T13:08:01;2.63;;;2.43;;
4694;SDS011;2361;49.540;8.390;2023-04-28T13:10:28;5.10;;;2.53;;
4694;SDS011;2361;49.540;8.390;2023-04-28T13:12:55;3.10;;;2.80;;
4694;SDS011;2361;49.540;8.390;2023-04-28T13:15:22;2.63;;;2.43;;
4694;SDS011;2361;49.540;8.390;2023-04-28T13:17:49;2.10;;;1.73;;
4694;SDS011;2361;49.540;8.390;2023-04-28T13:20:16;2.00;;;1.90;;
4694;SDS011;2361;49.540;8.390;2023-04-28T13:22:43;3.10;;;2.10;;
4694;SDS011;2361;49.540;8.390;2023-04-28T13:25:10;2.10;;;1.90;;
4694;SDS011;2361;49.540;8.390;2023-04-28T13:27:37;1.37;;;1.33;;
4694;SDS011;2361;49.540;8.390;2023-04-28T13:30:06;1.13;;;1.13;;
4694;SDS011;2361;49.540;8.390;2023-04-28T13:32:34;1.50;;;1.40;;
4694;SDS011;2361;49.540;8.390;2023-04-28T13:35:01;1.27;;;1.27;;
4694;SDS011;2361;49.540;8.390;2023-04-28T13:37:28;1.33;;;1.27;;
4694;SDS011;2361;49.540;8.390;2023-04-28T13:39:55;1.50;;;1.40;;
4694;SDS011;2361;49.540;8.390;2023-04-28T13:42:24;1.43;;;1.33;;
4694;SDS011;2361;49.540;8.390;2023-04-28T13:44:51;2.73;;;2.10;;
4694;SDS011;2361;49.540;8.390;2023-04-28T13:47:18;2.30;;;2.00;;
4694;SDS011;2361;49.540;8.390;2023-04-28T13:49:45;1.30;;;1.30;;
4694;SDS011;2361;49.540;8.390;2023-04-28T13:52:13;1.93;;;1.83;;
4694;SDS011;2361;49.540;8.390;2023-04-28T13:54:41;2.50;;;1.70;;
4694;SDS011;2361;49.540;8.390;2023-04-28T13:57:08;2.97;;;1.67;;
4694;SDS011;2361;49.540;8.390;2023-04-28T13:59:35;1.47;;;1.47;;
4694;SDS011;2361;49.540;8.390;2023-04-28T14:02:02;1.40;;;1.40;;
4694;SDS011;2361;49.540;8.390;2023-04-28T14:04:29;1.30;;;1.30;;
4694;SDS011;2361;49.540;8.390;2023-04-28T14:06:56;3.27;;;1.43;;
4694;SDS011;2361;49.540;8.390;2023-04-28T14:09:23;1.23;;;1.13;;
4694;SDS011;2361;49.540;8.390;2023-04-28T14:11:50;1.67;;;1.57;;
4694;SDS011;2361;49.540;8.390;2023-04-28T14:14:17;2.30;;;1.83;;
4694;SDS011;2361;49.540;8.390;2023-04-28T14:16:45;2.17;;;1.63;;
4694;SDS011;2361;49.540;8.390;2023-04-28T14:19:13;1.50;;;1.50;;
4694;SDS011;2361;49.540;8.390;2023-04-28T14:21:43;1.87;;;1.77;;
4694;SDS011;2361;49.540;8.390;2023-04-28T14:24:10;4.47;;;1.87;;
4694;SDS011;2361;49.540;8.390;2023-04-28T14:26:37;2.90;;;2.70;;
4694;SDS011;2361;49.540;8.390;2023-04-28T14:29:04;2.83;;;2.20;;
4694;SDS011;2361;49.540;8.390;2023-04-28T14:31:31;3.43;;;1.97;;
4694;SDS011;2361;49.540;8.390;2023-04-28T14:33:57;2.20;;;2.00;;
4694;SDS011;2361;49.540;8.390;2023-04-28T14:36:24;1.60;;;1.53;;
4694;SDS011;2361;49.540;8.390;2023-04-28T14:38:52;1.83;;;1.70;;
4694;SDS011;2361;49.540;8.390;2023-04-28T14:41:19;5.13;;;1.73;;
4694;SDS011;2361;49.540;8.390;2023-04-28T14:43:46;1.30;;;1.20;;
4694;SDS011;2361;49.540;8.390;2023-04-28T14:46:13;2.10;;;2.00;;
4694;SDS011;2361;49.540;8.390;2023-04-28T14:48:42;1.50;;;1.37;;
4694;SDS011;2361;49.540;8.390;2023-04-28T14:51:09;1.10;;;1.10;;
4694;SDS011;2361;49.540;8.390;2023-04-28T14:53:36;1.60;;;1.50;;
4694;SDS011;2361;49.540;8.390;2023-04-28T14:56:04;3.13;;;1.50;;
4694;SDS011;2361;49.540;8.390;2023-04-28T14:58:43;2.00;;;1.17;;
4694;SDS011;2361;49.540;8.390;2023-04-28T15:01:10;1.00;;;1.00;;
4694;SDS011;2361;49.540;8.390;2023-04-28T15:03:37;1.00;;;1.00;;
4694;SDS011;2361;49.540;8.390;2023-04-28T15:06:04;0.83;;;0.83;;
4694;SDS011;2361;49.540;8.390;2023-04-28T15:08:31;1.60;;;1.00;;
4694;SDS011;2361;49.540;8.390;2023-04-28T15:10:58;3.23;;;1.70;;
4694;SDS011;2361;49.540;8.390;2023-04-28T15:13:25;1.20;;;1.20;;
4694;SDS011;2361;49.540;8.390;2023-04-28T15:15:53;0.90;;;0.90;;
4694;SDS011;2361;49.540;8.390;2023-04-28T15:18:21;1.93;;;1.27;;
4694;SDS011;2361;49.540;8.390;2023-04-28T15:20:48;1.80;;;1.37;;
4694;SDS011;2361;49.540;8.390;2023-04-28T15:23:16;0.87;;;0.87;;
4694;SDS011;2361;49.540;8.390;2023-04-28T15:25:44;1.27;;;1.27;;
4694;SDS011;2361;49.540;8.390;2023-04-28T15:28:12;1.50;;;1.40;;
4694;SDS011;2361;49.540;8.390;2023-04-28T15:30:39;1.47;;;1.47;;
4694;SDS011;2361;49.540;8.390;2023-04-28T15:33:06;2.20;;;1.27;;
4694;SDS011;2361;49.540;8.390;2023-04-28T15:35:33;0.87;;;0.87;;
4694;SDS011;2361;49.540;8.390;2023-04-28T15:38:00;1.10;;;1.10;;
4694;SDS011;2361;49.540;8.390;2023-04-28T15:40:27;1.00;;;1.00;;
4694;SDS011;2361;49.540;8.390;2023-04-28T15:42:55;1.40;;;1.40;;
4694;SDS011;2361;49.540;8.390;2023-04-28T15:45:22;1.60;;;1.50;;
4694;SDS011;2361;49.540;8.390;2023-04-28T15:47:49;9.20;;;5.73;;
4694;SDS011;2361;49.540;8.390;2023-04-28T15:50:17;20.47;;;11.67;;
4694;SDS011;2361;49.540;8.390;2023-04-28T15:52:45;5.00;;;4.43;;
4694;SDS011;2361;49.540;8.390;2023-04-28T15:55:16;1.53;;;1.43;;
4694;SDS011;2361;49.540;8.390;2023-04-28T15:58:14;1.03;;;1.03;;